Fort Davis, TX

4:17 AM CDT on May 22, 2015 (GMT -0500)
MesoWest | | Change Station
CLOSE
Current Station
Personal Weather Station
Location: Fort Davis, TX
Elevation: 6643 ft
Nearby Weather Stations

Elev 6643 ft 30.68 °N, 104.01 °W | Updated 2 hours ago

Fog
Fog
43 °F
Feels Like 37 °F
N
10
Wind Variable Wind from SSE
Gusts 15.0 mph

Today
High -- | Low -- °F
--% Chance of Precip.
Yesterday
High -- | Low -- °F
Precip. -- in
6:57 AM 8:48 PM
Waxing Crescent, 20% visible
Pressure 30.15 in
Visibility 10.0 miles
Clouds Mostly Cloudy 1400 ft
Overcast 2000 ft
Windchill 37 °F
Dew Point Not available.
Humidity Not available.
Rainfall in
Snow Depth Not available.
UV 0 out of 12
Pollen .70 out of 12
Air Quality Not available.
Flu Activity Sporadic
METAR KE38 220855Z AUTO 36004KT 10SM BKN014 OVC020 14/13 A3015 RMK AO2 T01410133

More Conditions Fewer Conditions

Pressure 30.15 in
Visibility 10.0 miles
Clouds Mostly Cloudy 1400 ft
Overcast 2000 ft
Windchill 37 °F
Dew Point Not available.
Humidity Not available.
Rainfall in
Snow Depth Not available.
UV 0 out of 12
Pollen .70 out of 12
Air Quality Not available.
Flu Activity Sporadic
METAR KE38 220855Z AUTO 36004KT 10SM BKN014 OVC020 14/13 A3015 RMK AO2 T01410133

More Conditions Fewer Conditions

10-Day Weather Forecast

Almanac

Astronomy

May. 22, 2015 Rise Set
Actual Time
Civil Twilight
Nautical Twilight
Astronomical Twilight
Moon
Length of Visible Light
Length of Day
Tomorrow will be .
, % of the Moon is Illuminated

Today's Extremes

State Highs State Lows

Community

WunderPhotos

Upload Photos

1,823,195 photos uploaded!

WunderBlogs® & News

Nearby

Air Quality

  Air Quality AQ Index Pollutant
Not available.

Snow Depth

Station Depth Elevation

Earthquake Activity

City Distance Mag. Time & Date
Minimum magnitude displayed is 2.5.

Coastal Water Temperatures

Place Temperature

Stations

Nearby Weather Stations

Station Location Temp. Windchill Dew Point Humidity Wind Precip. Elev Updated Type